Terminal Aerodrome Forecast
Issued by NWS Portland, OR

Home | Current Version | Previous Version | Text Only | Print | Product List | Glossary On
Versions: 1 2 3 4 5 6 7 8 9 10 11 12 13 14 15 16 17 18 19 20 21 22 23 24 25 26 27 28 29 30 31 32 33 34 35 36 37 38 39 40 41 42
003
FTUS46 KPQR 251141
TAFEUG
TAF
KEUG 251141Z 2512/2612 VRB03KT P6SM BKN025 OVC040
     FM251800 31005KT P6SM SCT030 BKN040
     FM252100 34008KT P6SM BKN050
     FM260700 31005KT P6SM OVC050=

USA.gov is the U.S. government's official web portal to all federal, state and local government web resources and services.